sensor_id;sensor_type;location;lat;lon;timestamp;pressure;altitude;pressure_sealevel;temperature;humidity
56671;BME280;42545;50.054;8.306;2023-02-18T00:00:04;100731.63;;;10.35;100.00
56671;BME280;42545;50.054;8.306;2023-02-18T00:02:31;100733.38;;;10.36;100.00
56671;BME280;42545;50.054;8.306;2023-02-18T00:04:58;100743.88;;;10.34;100.00
56671;BME280;42545;50.054;8.306;2023-02-18T00:07:25;100746.47;;;10.33;100.00
56671;BME280;42545;50.054;8.306;2023-02-18T00:09:54;100745.69;;;10.35;100.00
56671;BME280;42545;50.054;8.306;2023-02-18T00:12:20;100735.97;;;10.34;100.00
56671;BME280;42545;50.054;8.306;2023-02-18T00:14:47;100733.28;;;10.33;100.00
56671;BME280;42545;50.054;8.306;2023-02-18T00:17:14;100737.63;;;10.31;100.00
56671;BME280;42545;50.054;8.306;2023-02-18T00:19:41;100731.38;;;10.29;100.00
56671;BME280;42545;50.054;8.306;2023-02-18T00:22:07;100726.06;;;10.27;100.00
56671;BME280;42545;50.054;8.306;2023-02-18T00:24:34;100725.13;;;10.25;100.00
56671;BME280;42545;50.054;8.306;2023-02-18T00:27:03;100734.88;;;10.28;100.00
56671;BME280;42545;50.054;8.306;2023-02-18T00:29:29;100731.28;;;10.26;100.00
56671;BME280;42545;50.054;8.306;2023-02-18T00:31:56;100731.28;;;10.24;100.00
56671;BME280;42545;50.054;8.306;2023-02-18T00:34:22;100726.78;;;10.22;100.00
56671;BME280;42545;50.054;8.306;2023-02-18T00:36:49;100725.06;;;10.24;100.00
56671;BME280;42545;50.054;8.306;2023-02-18T00:39:16;100732.09;;;10.23;100.00
56671;BME280;42545;50.054;8.306;2023-02-18T00:41:43;100726.72;;;10.20;100.00
56671;BME280;42545;50.054;8.306;2023-02-18T00:44:12;100724.16;;;10.22;100.00
56671;BME280;42545;50.054;8.306;2023-02-18T00:46:39;100717.94;;;10.19;100.00
56671;BME280;42545;50.054;8.306;2023-02-18T00:49:06;100733.81;;;10.21;100.00
56671;BME280;42545;50.054;8.306;2023-02-18T00:51:33;100739.97;;;10.22;100.00
56671;BME280;42545;50.054;8.306;2023-02-18T00:54:00;100731.94;;;10.17;100.00
56671;BME280;42545;50.054;8.306;2023-02-18T00:56:27;100732.88;;;10.19;100.00
56671;BME280;42545;50.054;8.306;2023-02-18T00:58:54;100737.25;;;10.18;100.00
56671;BME280;42545;50.054;8.306;2023-02-18T01:01:22;100738.06;;;10.16;100.00
56671;BME280;42545;50.054;8.306;2023-02-18T01:03:49;100738.00;;;10.14;100.00
56671;BME280;42545;50.054;8.306;2023-02-18T01:06:16;100738.88;;;10.13;100.00
56671;BME280;42545;50.054;8.306;2023-02-18T01:08:43;100742.34;;;10.12;100.00
56671;BME280;42545;50.054;8.306;2023-02-18T01:11:11;100735.19;;;10.08;100.00
56671;BME280;42545;50.054;8.306;2023-02-18T01:13:39;100739.53;;;10.06;100.00
56671;BME280;42545;50.054;8.306;2023-02-18T01:16:06;100746.41;;;10.01;100.00
56671;BME280;42545;50.054;8.306;2023-02-18T01:18:35;100745.41;;;9.97;100.00
56671;BME280;42545;50.054;8.306;2023-02-18T01:21:02;100736.53;;;9.94;100.00
56671;BME280;42545;50.054;8.306;2023-02-18T01:23:32;100735.53;;;9.90;100.00
56671;BME280;42545;50.054;8.306;2023-02-18T01:25:59;100727.59;;;9.89;100.00
56671;BME280;42545;50.054;8.306;2023-02-18T01:28:26;100724.00;;;9.87;100.00
56671;BME280;42545;50.054;8.306;2023-02-18T01:30:53;100725.72;;;9.85;100.00
56671;BME280;42545;50.054;8.306;2023-02-18T01:33:19;100723.03;;;9.83;100.00
56671;BME280;42545;50.054;8.306;2023-02-18T01:35:48;100717.69;;;9.81;100.00
56671;BME280;42545;50.054;8.306;2023-02-18T01:38:15;100729.13;;;9.80;100.00
56671;BME280;42545;50.054;8.306;2023-02-18T01:40:47;100726.44;;;9.79;100.00
56671;BME280;42545;50.054;8.306;2023-02-18T01:43:15;100722.03;;;9.79;100.00
56671;BME280;42545;50.054;8.306;2023-02-18T01:45:50;100703.53;;;9.78;100.00
56671;BME280;42545;50.054;8.306;2023-02-18T01:48:22;100708.88;;;9.79;100.00
56671;BME280;42545;50.054;8.306;2023-02-18T01:50:53;100708.06;;;9.82;100.00
56671;BME280;42545;50.054;8.306;2023-02-18T01:53:25;100694.91;;;9.82;100.00
56671;BME280;42545;50.054;8.306;2023-02-18T01:55:54;100699.25;;;9.81;100.00
56671;BME280;42545;50.054;8.306;2023-02-18T01:58:21;100695.78;;;9.82;100.00
56671;BME280;42545;50.054;8.306;2023-02-18T02:00:48;100699.31;;;9.83;100.00
56671;BME280;42545;50.054;8.306;2023-02-18T02:03:15;100698.41;;;9.82;100.00
56671;BME280;42545;50.054;8.306;2023-02-18T02:05:42;100697.47;;;9.80;100.00
56671;BME280;42545;50.054;8.306;2023-02-18T02:08:10;100701.00;;;9.81;100.00
56671;BME280;42545;50.054;8.306;2023-02-18T02:10:52;100697.53;;;9.82;100.00
56671;BME280;42545;50.054;8.306;2023-02-18T02:13:28;100692.25;;;9.82;100.00
56671;BME280;42545;50.054;8.306;2023-02-18T02:16:05;100688.72;;;9.81;100.00
56671;BME280;42545;50.054;8.306;2023-02-18T02:18:44;100690.47;;;9.81;100.00
56671;BME280;42545;50.054;8.306;2023-02-18T02:21:42;100686.03;;;9.80;100.00
56671;BME280;42545;50.054;8.306;2023-02-18T02:24:52;100678.00;;;9.75;100.00
56671;BME280;42545;50.054;8.306;2023-02-18T02:27:25;100689.53;;;9.79;100.00
56671;BME280;42545;50.054;8.306;2023-02-18T02:30:38;100677.06;;;9.73;100.00
56671;BME280;42545;50.054;8.306;2023-02-18T02:33:35;100688.66;;;9.80;100.00
56671;BME280;42545;50.054;8.306;2023-02-18T02:36:11;100671.84;;;9.75;100.00
56671;BME280;42545;50.054;8.306;2023-02-18T02:38:48;100671.91;;;9.78;100.00
56671;BME280;42545;50.054;8.306;2023-02-18T02:41:30;100663.13;;;9.77;100.00
56671;BME280;42545;50.054;8.306;2023-02-18T02:44:09;100648.06;;;9.73;100.00
56671;BME280;42545;50.054;8.306;2023-02-18T02:46:40;100653.34;;;9.73;100.00
56671;BME280;42545;50.054;8.306;2023-02-18T02:49:16;100658.63;;;9.73;100.00
56671;BME280;42545;50.054;8.306;2023-02-18T02:51:52;100657.69;;;9.73;100.00
56671;BME280;42545;50.054;8.306;2023-02-18T02:54:21;100657.75;;;9.74;100.00
56671;BME280;42545;50.054;8.306;2023-02-18T02:56:48;100644.53;;;9.73;100.00
56671;BME280;42545;50.054;8.306;2023-02-18T02:59:20;100649.78;;;9.71;100.00
56671;BME280;42545;50.054;8.306;2023-02-18T03:02:03;100659.44;;;9.72;100.00
56671;BME280;42545;50.054;8.306;2023-02-18T03:04:50;100649.72;;;9.70;100.00
56671;BME280;42545;50.054;8.306;2023-02-18T03:07:38;100653.25;;;9.70;100.00
56671;BME280;42545;50.054;8.306;2023-02-18T03:10:24;100657.63;;;9.70;100.00
56671;BME280;42545;50.054;8.306;2023-02-18T03:13:03;100647.09;;;9.70;100.00
56671;BME280;42545;50.054;8.306;2023-02-18T03:15:37;100652.31;;;9.68;100.00
56671;BME280;42545;50.054;8.306;2023-02-18T03:18:09;100643.47;;;9.66;100.00
56671;BME280;42545;50.054;8.306;2023-02-18T03:20:42;100639.94;;;9.66;100.00
56671;BME280;42545;50.054;8.306;2023-02-18T03:23:17;100639.09;;;9.67;100.00
56671;BME280;42545;50.054;8.306;2023-02-18T03:25:47;100639.03;;;9.65;100.00
56671;BME280;42545;50.054;8.306;2023-02-18T03:28:17;100640.75;;;9.63;100.00
56671;BME280;42545;50.054;8.306;2023-02-18T03:30:46;100650.44;;;9.64;100.00
56671;BME280;42545;50.054;8.306;2023-02-18T03:33:17;100649.53;;;9.63;100.00
56671;BME280;42545;50.054;8.306;2023-02-18T03:35:47;100642.50;;;9.62;100.00
56671;BME280;42545;50.054;8.306;2023-02-18T03:38:19;100649.50;;;9.62;100.00
56671;BME280;42545;50.054;8.306;2023-02-18T03:40:47;100654.72;;;9.60;100.00
56671;BME280;42545;50.054;8.306;2023-02-18T03:43:14;100651.19;;;9.60;100.00
56671;BME280;42545;50.054;8.306;2023-02-18T03:45:42;100643.09;;;9.54;100.00
56671;BME280;42545;50.054;8.306;2023-02-18T03:48:09;100644.91;;;9.56;100.00
56671;BME280;42545;50.054;8.306;2023-02-18T03:50:35;100647.53;;;9.55;100.00
56671;BME280;42545;50.054;8.306;2023-02-18T03:53:02;100642.22;;;9.53;100.00
56671;BME280;42545;50.054;8.306;2023-02-18T03:55:30;100640.41;;;9.52;100.00
56671;BME280;42545;50.054;8.306;2023-02-18T03:57:57;100636.00;;;9.51;100.00
56671;BME280;42545;50.054;8.306;2023-02-18T04:00:24;100630.75;;;9.51;100.00
56671;BME280;42545;50.054;8.306;2023-02-18T04:02:51;100628.94;;;9.50;100.00
56671;BME280;42545;50.054;8.306;2023-02-18T04:05:17;100622.84;;;9.51;100.00
56671;BME280;42545;50.054;8.306;2023-02-18T04:07:44;100621.09;;;9.52;100.00
56671;BME280;42545;50.054;8.306;2023-02-18T04:10:11;100610.56;;;9.52;100.00
56671;BME280;42545;50.054;8.306;2023-02-18T04:12:40;100609.66;;;9.51;100.00
56671;BME280;42545;50.054;8.306;2023-02-18T04:15:07;100613.19;;;9.52;100.00
56671;BME280;42545;50.054;8.306;2023-02-18T04:17:34;100610.50;;;9.50;100.00
56671;BME280;42545;50.054;8.306;2023-02-18T04:20:01;100611.44;;;9.52;100.00
56671;BME280;42545;50.054;8.306;2023-02-18T04:22:29;100612.25;;;9.50;100.00
56671;BME280;42545;50.054;8.306;2023-02-18T04:24:56;100618.47;;;9.52;100.00
56671;BME280;42545;50.054;8.306;2023-02-18T04:27:23;100616.66;;;9.51;100.00
56671;BME280;42545;50.054;8.306;2023-02-18T04:29:52;100619.38;;;9.54;100.00
56671;BME280;42545;50.054;8.306;2023-02-18T04:32:18;100615.00;;;9.53;100.00
56671;BME280;42545;50.054;8.306;2023-02-18T04:34:45;100607.97;;;9.53;100.00
56671;BME280;42545;50.054;8.306;2023-02-18T04:37:12;100605.38;;;9.55;100.00
56671;BME280;42545;50.054;8.306;2023-02-18T04:39:39;100615.16;;;9.59;100.00
56671;BME280;42545;50.054;8.306;2023-02-18T04:42:06;100607.25;;;9.59;100.00
56671;BME280;42545;50.054;8.306;2023-02-18T04:44:34;100619.59;;;9.61;100.00
56671;BME280;42545;50.054;8.306;2023-02-18T04:47:04;100611.63;;;9.58;100.00
56671;BME280;42545;50.054;8.306;2023-02-18T04:49:31;100616.09;;;9.61;100.00
56671;BME280;42545;50.054;8.306;2023-02-18T04:51:58;100604.66;;;9.60;100.00
56671;BME280;42545;50.054;8.306;2023-02-18T04:54:25;100613.50;;;9.62;100.00
56671;BME280;42545;50.054;8.306;2023-02-18T04:56:52;100610.91;;;9.64;100.00
56671;BME280;42545;50.054;8.306;2023-02-18T04:59:20;100612.75;;;9.67;100.00
56671;BME280;42545;50.054;8.306;2023-02-18T05:01:46;100608.41;;;9.69;100.00
56671;BME280;42545;50.054;8.306;2023-02-18T05:04:15;100610.16;;;9.68;100.00
56671;BME280;42545;50.054;8.306;2023-02-18T05:06:42;100603.09;;;9.67;100.00
56671;BME280;42545;50.054;8.306;2023-02-18T05:09:09;100602.19;;;9.67;100.00
56671;BME280;42545;50.054;8.306;2023-02-18T05:11:36;100602.09;;;9.63;100.00
56671;BME280;42545;50.054;8.306;2023-02-18T05:14:03;100598.56;;;9.63;100.00
56671;BME280;42545;50.054;8.306;2023-02-18T05:16:30;100598.63;;;9.65;100.00
56671;BME280;42545;50.054;8.306;2023-02-18T05:18:57;100604.72;;;9.63;100.00
56671;BME280;42545;50.054;8.306;2023-02-18T05:21:25;100604.72;;;9.63;100.00
56671;BME280;42545;50.054;8.306;2023-02-18T05:23:52;100592.38;;;9.61;100.00
56671;BME280;42545;50.054;8.306;2023-02-18T05:26:19;100581.84;;;9.61;100.00
56671;BME280;42545;50.054;8.306;2023-02-18T05:28:46;100581.78;;;9.59;100.00
56671;BME280;42545;50.054;8.306;2023-02-18T05:31:12;100575.63;;;9.59;100.00
56671;BME280;42545;50.054;8.306;2023-02-18T05:33:39;100572.13;;;9.58;100.00
56671;BME280;42545;50.054;8.306;2023-02-18T05:36:06;100563.13;;;9.52;100.00
56671;BME280;42545;50.054;8.306;2023-02-18T05:38:35;100568.63;;;9.59;100.00
56671;BME280;42545;50.054;8.306;2023-02-18T05:41:02;100570.31;;;9.57;100.00
56671;BME280;42545;50.054;8.306;2023-02-18T05:43:29;100566.81;;;9.57;100.00
56671;BME280;42545;50.054;8.306;2023-02-18T05:46:16;100569.44;;;9.57;100.00
56671;BME280;42545;50.054;8.306;2023-02-18T05:48:44;100560.63;;;9.56;100.00
56671;BME280;42545;50.054;8.306;2023-02-18T05:51:11;100564.13;;;9.55;100.00
56671;BME280;42545;50.054;8.306;2023-02-18T05:53:39;100566.75;;;9.55;100.00
56671;BME280;42545;50.054;8.306;2023-02-18T05:56:07;100557.91;;;9.53;100.00
56671;BME280;42545;50.054;8.306;2023-02-18T05:58:34;100560.59;;;9.55;100.00
56671;BME280;42545;50.054;8.306;2023-02-18T06:01:01;100554.41;;;9.53;100.00
56671;BME280;42545;50.054;8.306;2023-02-18T06:03:27;100543.88;;;9.54;100.00
56671;BME280;42545;50.054;8.306;2023-02-18T06:05:54;100536.84;;;9.53;100.00
56671;BME280;42545;50.054;8.306;2023-02-18T06:08:21;100543.88;;;9.53;100.00
56671;BME280;42545;50.054;8.306;2023-02-18T06:10:49;100551.72;;;9.51;100.00
56671;BME280;42545;50.054;8.306;2023-02-18T06:13:16;100543.75;;;9.50;100.00
56671;BME280;42545;50.054;8.306;2023-02-18T06:15:43;100542.88;;;9.49;100.00
56671;BME280;42545;50.054;8.306;2023-02-18T06:18:09;100540.25;;;9.51;100.00
56671;BME280;42545;50.054;8.306;2023-02-18T06:20:37;100534.09;;;9.50;100.00
56671;BME280;42545;50.054;8.306;2023-02-18T06:23:04;100545.50;;;9.49;100.00
56671;BME280;42545;50.054;8.306;2023-02-18T06:25:32;100550.78;;;9.49;100.00
56671;BME280;42545;50.054;8.306;2023-02-18T06:28:00;100539.22;;;9.44;100.00
56671;BME280;42545;50.054;8.306;2023-02-18T06:30:27;100558.63;;;9.48;100.00
56671;BME280;42545;50.054;8.306;2023-02-18T06:32:54;100555.09;;;9.47;100.00
56671;BME280;42545;50.054;8.306;2023-02-18T06:35:21;100548.09;;;9.48;100.00
56671;BME280;42545;50.054;8.306;2023-02-18T06:37:48;100569.16;;;9.48;100.00
56671;BME280;42545;50.054;8.306;2023-02-18T06:40:15;100559.41;;;9.45;100.00
56671;BME280;42545;50.054;8.306;2023-02-18T06:42:42;100566.50;;;9.46;100.00
56671;BME280;42545;50.054;8.306;2023-02-18T06:45:10;100573.47;;;9.44;100.00
56671;BME280;42545;50.054;8.306;2023-02-18T06:47:37;100564.63;;;9.42;100.00
56671;BME280;42545;50.054;8.306;2023-02-18T06:50:05;100570.78;;;9.42;100.00
56671;BME280;42545;50.054;8.306;2023-02-18T06:52:33;100561.84;;;9.37;100.00
56671;BME280;42545;50.054;8.306;2023-02-18T06:54:59;100579.44;;;9.38;100.00
56671;BME280;42545;50.054;8.306;2023-02-18T06:57:26;100574.16;;;9.38;99.10
56671;BME280;42545;50.054;8.306;2023-02-18T06:59:55;100571.53;;;9.38;98.30
56671;BME280;42545;50.054;8.306;2023-02-18T07:02:22;100574.16;;;9.38;98.46
56671;BME280;42545;50.054;8.306;2023-02-18T07:04:49;100558.22;;;9.34;97.09
56671;BME280;42545;50.054;8.306;2023-02-18T07:07:16;100559.16;;;9.36;96.38
56671;BME280;42545;50.054;8.306;2023-02-18T07:09:42;100555.69;;;9.37;96.24
56671;BME280;42545;50.054;8.306;2023-02-18T07:12:09;100550.22;;;9.31;95.78
56671;BME280;42545;50.054;8.306;2023-02-18T07:14:37;100551.19;;;9.33;95.17
56671;BME280;42545;50.054;8.306;2023-02-18T07:17:04;100563.59;;;9.37;94.92
56671;BME280;42545;50.054;8.306;2023-02-18T07:19:32;100553.06;;;9.37;95.01
56671;BME280;42545;50.054;8.306;2023-02-18T07:21:59;100551.13;;;9.31;94.28
56671;BME280;42545;50.054;8.306;2023-02-18T07:24:26;100564.38;;;9.34;94.19
56671;BME280;42545;50.054;8.306;2023-02-18T07:26:52;100547.63;;;9.32;92.59
56671;BME280;42545;50.054;8.306;2023-02-18T07:29:20;100547.69;;;9.34;92.74
56671;BME280;42545;50.054;8.306;2023-02-18T07:31:46;100547.63;;;9.32;92.39
56671;BME280;42545;50.054;8.306;2023-02-18T07:34:15;100553.84;;;9.34;91.62
56671;BME280;42545;50.054;8.306;2023-02-18T07:36:43;100560.81;;;9.32;90.76
56671;BME280;42545;50.054;8.306;2023-02-18T07:39:09;100562.66;;;9.35;89.99
56671;BME280;42545;50.054;8.306;2023-02-18T07:41:36;100567.06;;;9.36;89.50
56671;BME280;42545;50.054;8.306;2023-02-18T07:44:03;100562.72;;;9.38;89.66
56671;BME280;42545;50.054;8.306;2023-02-18T07:46:30;100572.41;;;9.39;89.00
56671;BME280;42545;50.054;8.306;2023-02-18T07:48:57;100568.00;;;9.38;88.24
56671;BME280;42545;50.054;8.306;2023-02-18T07:51:24;100575.94;;;9.39;88.17
56671;BME280;42545;50.054;8.306;2023-02-18T07:53:52;100573.34;;;9.41;86.74
56671;BME280;42545;50.054;8.306;2023-02-18T07:56:19;100556.66;;;9.40;86.37
56671;BME280;42545;50.054;8.306;2023-02-18T07:58:46;100561.16;;;9.45;86.08
56671;BME280;42545;50.054;8.306;2023-02-18T08:01:14;100557.69;;;9.46;86.38
56671;BME280;42545;50.054;8.306;2023-02-18T08:03:41;100548.09;;;9.48;86.57
56671;BME280;42545;50.054;8.306;2023-02-18T08:06:20;100553.38;;;9.48;86.44
56671;BME280;42545;50.054;8.306;2023-02-18T08:08:47;100554.16;;;9.45;85.64
56671;BME280;42545;50.054;8.306;2023-02-18T08:11:15;100544.59;;;9.49;85.87
56671;BME280;42545;50.054;8.306;2023-02-18T08:13:41;100538.41;;;9.47;86.23
56671;BME280;42545;50.054;8.306;2023-02-18T08:16:09;100540.19;;;9.48;85.16
56671;BME280;42545;50.054;8.306;2023-02-18T08:18:36;100542.00;;;9.50;84.73
56671;BME280;42545;50.054;8.306;2023-02-18T08:21:03;100529.63;;;9.46;84.45
56671;BME280;42545;50.054;8.306;2023-02-18T08:23:29;100539.47;;;9.53;84.34
56671;BME280;42545;50.054;8.306;2023-02-18T08:25:56;100543.88;;;9.54;83.94
56671;BME280;42545;50.054;8.306;2023-02-18T08:28:24;100546.50;;;9.54;83.14
56671;BME280;42545;50.054;8.306;2023-02-18T08:30:53;100540.41;;;9.55;82.84
56671;BME280;42545;50.054;8.306;2023-02-18T08:33:22;100526.22;;;9.50;82.31
56671;BME280;42545;50.054;8.306;2023-02-18T08:35:51;100539.59;;;9.58;81.87
56671;BME280;42545;50.054;8.306;2023-02-18T08:38:18;100554.59;;;9.60;82.30
56671;BME280;42545;50.054;8.306;2023-02-18T08:40:45;100551.09;;;9.61;81.59
56671;BME280;42545;50.054;8.306;2023-02-18T08:43:12;100557.31;;;9.63;81.44
56671;BME280;42545;50.054;8.306;2023-02-18T08:45:42;100553.69;;;9.58;81.31
56671;BME280;42545;50.054;8.306;2023-02-18T08:48:10;100560.84;;;9.64;80.49
56671;BME280;42545;50.054;8.306;2023-02-18T08:50:37;100556.53;;;9.66;79.87
56671;BME280;42545;50.054;8.306;2023-02-18T08:53:04;100570.00;;;9.77;80.53
56671;BME280;42545;50.054;8.306;2023-02-18T08:55:32;100570.94;;;9.79;81.37
56671;BME280;42545;50.054;8.306;2023-02-18T08:57:59;100563.91;;;9.79;80.83
56671;BME280;42545;50.054;8.306;2023-02-18T09:00:27;100548.03;;;9.78;80.80
56671;BME280;42545;50.054;8.306;2023-02-18T09:02:55;100526.66;;;9.67;80.72
56671;BME280;42545;50.054;8.306;2023-02-18T09:05:21;100553.41;;;9.81;80.82
56671;BME280;42545;50.054;8.306;2023-02-18T09:07:48;100538.44;;;9.80;80.77
56671;BME280;42545;50.054;8.306;2023-02-18T09:10:17;100523.69;;;9.87;81.27
56671;BME280;42545;50.054;8.306;2023-02-18T09:12:44;100550.97;;;9.89;80.75
56671;BME280;42545;50.054;8.306;2023-02-18T09:15:10;100543.06;;;9.89;81.03
56671;BME280;42545;50.054;8.306;2023-02-18T09:17:37;100535.00;;;9.82;80.72
56671;BME280;42545;50.054;8.306;2023-02-18T09:20:08;100546.63;;;9.91;80.88
56671;BME280;42545;50.054;8.306;2023-02-18T09:22:35;100541.41;;;9.92;80.69
56671;BME280;42545;50.054;8.306;2023-02-18T09:25:02;100533.47;;;9.91;80.97
56671;BME280;42545;50.054;8.306;2023-02-18T09:27:29;100545.75;;;9.90;80.89
56671;BME280;42545;50.054;8.306;2023-02-18T09:29:56;100549.22;;;9.89;80.95
56671;BME280;42545;50.054;8.306;2023-02-18T09:32:22;100542.19;;;9.88;80.64
56671;BME280;42545;50.054;8.306;2023-02-18T09:34:52;100535.06;;;9.84;80.77
56671;BME280;42545;50.054;8.306;2023-02-18T09:37:20;100531.66;;;9.88;80.58
56671;BME280;42545;50.054;8.306;2023-02-18T09:39:46;100532.56;;;9.90;80.78
56671;BME280;42545;50.054;8.306;2023-02-18T09:42:16;100525.53;;;9.91;80.33
56671;BME280;42545;50.054;8.306;2023-02-18T09:44:47;100529.09;;;9.91;80.07
56671;BME280;42545;50.054;8.306;2023-02-18T09:47:17;100545.13;;;9.99;80.24
56671;BME280;42545;50.054;8.306;2023-02-18T09:49:47;100546.00;;;9.99;80.63
56671;BME280;42545;50.054;8.306;2023-02-18T09:52:20;100529.00;;;9.88;80.38
56671;BME280;42545;50.054;8.306;2023-02-18T09:54:48;100546.88;;;9.98;80.86
56671;BME280;42545;50.054;8.306;2023-02-18T09:57:21;100556.44;;;9.96;80.71
56671;BME280;42545;50.054;8.306;2023-02-18T09:59:56;100541.47;;;9.94;80.88
56671;BME280;42545;50.054;8.306;2023-02-18T10:02:26;100561.72;;;9.95;80.11
56671;BME280;42545;50.054;8.306;2023-02-18T10:04:54;100560.06;;;9.98;80.43
56671;BME280;42545;50.054;8.306;2023-02-18T10:07:39;100537.00;;;9.91;80.04
56671;BME280;42545;50.054;8.306;2023-02-18T10:10:17;100537.16;;;9.97;80.05
56671;BME280;42545;50.054;8.306;2023-02-18T10:12:46;100530.13;;;9.98;79.81
56671;BME280;42545;50.054;8.306;2023-02-18T10:15:20;100537.25;;;10.00;79.74
56671;BME280;42545;50.054;8.306;2023-02-18T10:17:50;100517.72;;;9.94;79.36
56671;BME280;42545;50.054;8.306;2023-02-18T10:20:23;100519.72;;;10.03;80.02
56671;BME280;42545;50.054;8.306;2023-02-18T10:22:57;100520.59;;;10.03;80.13
56671;BME280;42545;50.054;8.306;2023-02-18T10:25:30;100528.66;;;10.08;80.34
56671;BME280;42545;50.054;8.306;2023-02-18T10:27:59;100515.47;;;10.09;80.28
56671;BME280;42545;50.054;8.306;2023-02-18T10:30:30;100521.59;;;10.07;79.82
56671;BME280;42545;50.054;8.306;2023-02-18T10:33:04;100532.25;;;10.11;80.07
56671;BME280;42545;50.054;8.306;2023-02-18T10:35:41;100525.84;;;10.01;80.27
56671;BME280;42545;50.054;8.306;2023-02-18T10:38:18;100530.31;;;10.06;79.91
56671;BME280;42545;50.054;8.306;2023-02-18T10:40:54;100526.81;;;10.05;80.90
56671;BME280;42545;50.054;8.306;2023-02-18T10:43:31;100529.63;;;10.13;80.10
56671;BME280;42545;50.054;8.306;2023-02-18T10:46:07;100526.28;;;10.18;80.11
56671;BME280;42545;50.054;8.306;2023-02-18T10:48:48;100507.03;;;10.23;79.63
56671;BME280;42545;50.054;8.306;2023-02-18T10:51:20;100521.25;;;10.28;79.60
56671;BME280;42545;50.054;8.306;2023-02-18T10:53:51;100519.41;;;10.25;79.45
56671;BME280;42545;50.054;8.306;2023-02-18T10:56:33;100520.22;;;10.23;79.94
56671;BME280;42545;50.054;8.306;2023-02-18T10:59:08;100533.47;;;10.24;79.70
56671;BME280;42545;50.054;8.306;2023-02-18T11:01:39;100525.47;;;10.21;80.13
56671;BME280;42545;50.054;8.306;2023-02-18T11:04:12;100535.94;;;10.18;80.02
56671;BME280;42545;50.054;8.306;2023-02-18T11:06:41;100529.72;;;10.16;80.08
56671;BME280;42545;50.054;8.306;2023-02-18T11:09:24;100520.06;;;10.16;79.45
56671;BME280;42545;50.054;8.306;2023-02-18T11:11:58;100513.13;;;10.20;80.17
56671;BME280;42545;50.054;8.306;2023-02-18T11:14:37;100519.31;;;10.22;79.50
56671;BME280;42545;50.054;8.306;2023-02-18T11:17:11;100508.94;;;10.28;80.37
56671;BME280;42545;50.054;8.306;2023-02-18T11:19:40;100502.03;;;10.32;78.71
56671;BME280;42545;50.054;8.306;2023-02-18T11:22:13;100497.59;;;10.31;78.98
56671;BME280;42545;50.054;8.306;2023-02-18T11:24:49;100485.31;;;10.31;78.87
56671;BME280;42545;50.054;8.306;2023-02-18T11:27:30;100487.28;;;10.40;79.09
56671;BME280;42545;50.054;8.306;2023-02-18T11:30:00;100490.81;;;10.42;78.44
56671;BME280;42545;50.054;8.306;2023-02-18T11:32:28;100484.84;;;10.48;78.21
56671;BME280;42545;50.054;8.306;2023-02-18T11:34:56;100480.63;;;10.56;78.10
56671;BME280;42545;50.054;8.306;2023-02-18T11:37:26;100473.63;;;10.58;77.46
56671;BME280;42545;50.054;8.306;2023-02-18T11:39:55;100473.78;;;10.66;76.85
56671;BME280;42545;50.054;8.306;2023-02-18T11:42:24;100461.38;;;10.62;77.14
56671;BME280;42545;50.054;8.306;2023-02-18T11:44:55;100467.00;;;10.75;76.56
56671;BME280;42545;50.054;8.306;2023-02-18T11:47:26;100466.19;;;10.80;76.85
56671;BME280;42545;50.054;8.306;2023-02-18T11:50:14;100439.69;;;10.75;75.58
56671;BME280;42545;50.054;8.306;2023-02-18T11:52:44;100438.94;;;10.81;76.18
56671;BME280;42545;50.054;8.306;2023-02-18T11:55:17;100424.75;;;10.75;76.22
56671;BME280;42545;50.054;8.306;2023-02-18T11:57:47;100428.59;;;10.90;76.46
56671;BME280;42545;50.054;8.306;2023-02-18T12:00:20;100433.06;;;10.94;75.97
56671;BME280;42545;50.054;8.306;2023-02-18T12:02:48;100420.47;;;10.82;76.33
56671;BME280;42545;50.054;8.306;2023-02-18T12:05:19;100425.00;;;10.86;75.97
56671;BME280;42545;50.054;8.306;2023-02-18T12:07:50;100421.59;;;10.92;76.96
56671;BME280;42545;50.054;8.306;2023-02-18T12:10:22;100421.63;;;10.95;77.00
56671;BME280;42545;50.054;8.306;2023-02-18T12:12:59;100415.63;;;11.02;76.32
56671;BME280;42545;50.054;8.306;2023-02-18T12:15:37;100404.91;;;10.94;75.87
56671;BME280;42545;50.054;8.306;2023-02-18T12:18:24;100400.72;;;11.06;76.48
56671;BME280;42545;50.054;8.306;2023-02-18T12:21:13;100406.19;;;11.15;76.25
56671;BME280;42545;50.054;8.306;2023-02-18T12:23:53;100416.94;;;11.24;75.40
56671;BME280;42545;50.054;8.306;2023-02-18T12:26:27;100410.78;;;11.25;75.18
56671;BME280;42545;50.054;8.306;2023-02-18T12:29:08;100422.91;;;11.14;75.17
56671;BME280;42545;50.054;8.306;2023-02-18T12:31:55;100421.16;;;11.14;76.19
56671;BME280;42545;50.054;8.306;2023-02-18T12:34:37;100424.72;;;11.16;76.58
56671;BME280;42545;50.054;8.306;2023-02-18T12:37:29;100421.13;;;11.13;76.44
56671;BME280;42545;50.054;8.306;2023-02-18T12:40:19;100421.03;;;11.08;76.15
56671;BME280;42545;50.054;8.306;2023-02-18T12:42:55;100415.63;;;11.01;76.09
56671;BME280;42545;50.054;8.306;2023-02-18T12:45:41;100424.25;;;10.95;76.23
56671;BME280;42545;50.054;8.306;2023-02-18T12:48:21;100418.97;;;10.93;76.67
56671;BME280;42545;50.054;8.306;2023-02-18T12:51:03;100425.00;;;10.86;76.78
56671;BME280;42545;50.054;8.306;2023-02-18T12:53:57;100416.13;;;10.83;76.97
56671;BME280;42545;50.054;8.306;2023-02-18T12:56:39;100428.34;;;10.79;77.48
56671;BME280;42545;50.054;8.306;2023-02-18T12:59:18;100429.16;;;10.76;80.63
56671;BME280;42545;50.054;8.306;2023-02-18T13:01:58;100416.75;;;10.72;81.81
56671;BME280;42545;50.054;8.306;2023-02-18T13:04:48;100420.09;;;10.64;83.23
56671;BME280;42545;50.054;8.306;2023-02-18T13:07:43;100428.69;;;10.53;83.82
56671;BME280;42545;50.054;8.306;2023-02-18T13:10:26;100424.16;;;10.48;84.66